sensor_id;sensor_type;location;lat;lon;timestamp;pressure;altitude;pressure_sealevel;temperature;humidity
65758;BME280;52495;52.208;5.158;2022-09-27T00:00:57;99676.75;;;10.62;91.36
65758;BME280;52495;52.208;5.158;2022-09-27T00:03:24;99683.13;;;10.77;90.37
65758;BME280;52495;52.208;5.158;2022-09-27T00:06:00;99679.19;;;10.67;90.44
65758;BME280;52495;52.208;5.158;2022-09-27T00:08:30;99675.88;;;10.63;89.90
65758;BME280;52495;52.208;5.158;2022-09-27T00:10:59;99670.06;;;10.58;89.52
65758;BME280;52495;52.208;5.158;2022-09-27T00:13:26;99669.16;;;10.59;88.81
65758;BME280;52495;52.208;5.158;2022-09-27T00:15:55;99672.56;;;10.59;88.20
65758;BME280;52495;52.208;5.158;2022-09-27T00:18:22;99674.56;;;10.51;88.91
65758;BME280;52495;52.208;5.158;2022-09-27T00:20:48;99669.28;;;10.54;88.39
65758;BME280;52495;52.208;5.158;2022-09-27T00:23:15;99668.47;;;10.54;88.58
65758;BME280;52495;52.208;5.158;2022-09-27T00:25:53;99667.00;;;10.46;88.78
65758;BME280;52495;52.208;5.158;2022-09-27T00:28:20;99659.16;;;10.50;89.05
65758;BME280;52495;52.208;5.158;2022-09-27T00:30:47;99662.44;;;10.53;88.29
65758;BME280;52495;52.208;5.158;2022-09-27T00:33:14;99658.97;;;10.54;88.96
65758;BME280;52495;52.208;5.158;2022-09-27T00:35:41;99660.63;;;10.57;88.91
65758;BME280;52495;52.208;5.158;2022-09-27T00:38:08;99658.88;;;10.57;88.75
65758;BME280;52495;52.208;5.158;2022-09-27T00:40:35;99662.31;;;10.58;89.06
65758;BME280;52495;52.208;5.158;2022-09-27T00:43:12;99661.41;;;10.59;89.25
65758;BME280;52495;52.208;5.158;2022-09-27T00:45:40;99669.97;;;10.59;89.33
65758;BME280;52495;52.208;5.158;2022-09-27T00:48:10;99670.88;;;10.58;88.59
65758;BME280;52495;52.208;5.158;2022-09-27T00:50:55;99666.69;;;10.56;88.91
65758;BME280;52495;52.208;5.158;2022-09-27T00:53:29;99676.25;;;10.52;88.82
65758;BME280;52495;52.208;5.158;2022-09-27T00:55:59;99677.28;;;10.48;89.18
65758;BME280;52495;52.208;5.158;2022-09-27T00:58:30;99669.63;;;10.45;88.85
65758;BME280;52495;52.208;5.158;2022-09-27T01:01:02;99672.22;;;10.45;89.38
65758;BME280;52495;52.208;5.158;2022-09-27T01:03:35;99673.03;;;10.45;89.20
65758;BME280;52495;52.208;5.158;2022-09-27T01:06:05;99679.25;;;10.41;88.78
65758;BME280;52495;52.208;5.158;2022-09-27T01:08:33;99677.66;;;10.36;89.07
65758;BME280;52495;52.208;5.158;2022-09-27T01:11:17;99680.19;;;10.37;89.07
65758;BME280;52495;52.208;5.158;2022-09-27T01:14:02;99686.47;;;10.30;89.92
65758;BME280;52495;52.208;5.158;2022-09-27T01:16:36;99682.03;;;10.33;89.09
65758;BME280;52495;52.208;5.158;2022-09-27T01:19:13;99694.03;;;10.35;89.50
65758;BME280;52495;52.208;5.158;2022-09-27T01:21:49;99688.84;;;10.36;89.93
65758;BME280;52495;52.208;5.158;2022-09-27T01:24:37;99687.94;;;10.37;89.26
65758;BME280;52495;52.208;5.158;2022-09-27T01:27:41;99694.75;;;10.40;89.40
65758;BME280;52495;52.208;5.158;2022-09-27T01:30:20;99699.59;;;10.49;88.43
65758;BME280;52495;52.208;5.158;2022-09-27T01:36:04;99691.28;;;10.41;90.00
65758;BME280;52495;52.208;5.158;2022-09-27T01:38:41;99685.28;;;10.40;89.86
65758;BME280;52495;52.208;5.158;2022-09-27T01:41:16;99686.97;;;10.41;89.64
65758;BME280;52495;52.208;5.158;2022-09-27T01:44:10;99675.88;;;10.39;90.24
65758;BME280;52495;52.208;5.158;2022-09-27T01:46:47;99681.09;;;10.36;89.64
65758;BME280;52495;52.208;5.158;2022-09-27T01:49:32;99685.41;;;10.36;90.01
65758;BME280;52495;52.208;5.158;2022-09-27T01:52:04;99686.25;;;10.36;89.27
65758;BME280;52495;52.208;5.158;2022-09-27T01:54:35;99685.47;;;10.34;89.49
65758;BME280;52495;52.208;5.158;2022-09-27T01:57:26;99691.72;;;10.27;89.86
65758;BME280;52495;52.208;5.158;2022-09-27T01:59:58;99680.56;;;10.26;89.66
65758;BME280;52495;52.208;5.158;2022-09-27T02:02:43;99689.47;;;10.17;89.74
65758;BME280;52495;52.208;5.158;2022-09-27T02:05:19;99682.78;;;10.12;88.36
65758;BME280;52495;52.208;5.158;2022-09-27T02:07:57;99684.47;;;10.13;88.47
65758;BME280;52495;52.208;5.158;2022-09-27T02:10:29;99679.06;;;10.21;89.42
65758;BME280;52495;52.208;5.158;2022-09-27T02:13:06;99682.34;;;10.24;88.23
65758;BME280;52495;52.208;5.158;2022-09-27T02:15:43;99685.78;;;10.25;88.65
65758;BME280;52495;52.208;5.158;2022-09-27T02:18:40;99678.81;;;10.27;88.89
65758;BME280;52495;52.208;5.158;2022-09-27T02:21:13;99678.81;;;10.27;88.84
65758;BME280;52495;52.208;5.158;2022-09-27T02:23:44;99673.94;;;10.19;88.58
65758;BME280;52495;52.208;5.158;2022-09-27T02:26:16;99686.03;;;10.17;88.96
65758;BME280;52495;52.208;5.158;2022-09-27T02:28:47;99686.03;;;10.17;89.25
65758;BME280;52495;52.208;5.158;2022-09-27T02:31:24;99679.97;;;10.18;89.30
65758;BME280;52495;52.208;5.158;2022-09-27T02:33:57;99674.81;;;10.18;88.66
65758;BME280;52495;52.208;5.158;2022-09-27T02:36:25;99676.56;;;10.17;89.39
65758;BME280;52495;52.208;5.158;2022-09-27T02:38:52;99672.31;;;10.16;88.63
65758;BME280;52495;52.208;5.158;2022-09-27T02:41:21;99673.25;;;10.14;88.90
65758;BME280;52495;52.208;5.158;2022-09-27T02:43:51;99683.09;;;10.02;89.10
65758;BME280;52495;52.208;5.158;2022-09-27T02:46:51;99680.66;;;9.98;89.26
65758;BME280;52495;52.208;5.158;2022-09-27T02:49:32;99684.13;;;9.97;89.71
65758;BME280;52495;52.208;5.158;2022-09-27T02:52:42;99679.03;;;9.95;89.93
65758;BME280;52495;52.208;5.158;2022-09-27T02:55:23;99679.84;;;9.97;89.62
65758;BME280;52495;52.208;5.158;2022-09-27T02:58:03;99676.97;;;9.80;88.59
65758;BME280;52495;52.208;5.158;2022-09-27T03:00:59;99672.41;;;9.88;88.66
65758;BME280;52495;52.208;5.158;2022-09-27T03:03:47;99677.44;;;9.91;88.17
65758;BME280;52495;52.208;5.158;2022-09-27T03:06:17;99680.88;;;9.92;88.03
65758;BME280;52495;52.208;5.158;2022-09-27T03:08:47;99673.81;;;9.97;88.62
65758;BME280;52495;52.208;5.158;2022-09-27T03:11:14;99676.38;;;9.98;88.04
65758;BME280;52495;52.208;5.158;2022-09-27T03:13:41;99672.19;;;9.94;87.74
65758;BME280;52495;52.208;5.158;2022-09-27T03:16:09;99667.78;;;9.98;88.40
65758;BME280;52495;52.208;5.158;2022-09-27T03:18:49;99672.78;;;10.02;87.41
65758;BME280;52495;52.208;5.158;2022-09-27T03:21:20;99672.78;;;10.02;87.46
65758;BME280;52495;52.208;5.158;2022-09-27T03:23:47;99678.00;;;10.01;87.23
65758;BME280;52495;52.208;5.158;2022-09-27T03:26:13;99674.53;;;10.02;87.31
65758;BME280;52495;52.208;5.158;2022-09-27T03:28:40;99680.47;;;10.04;87.91
65758;BME280;52495;52.208;5.158;2022-09-27T03:31:07;99671.97;;;10.00;87.57
65758;BME280;52495;52.208;5.158;2022-09-27T03:34:13;99675.31;;;10.04;88.49
65758;BME280;52495;52.208;5.158;2022-09-27T03:36:41;99680.38;;;10.07;87.87
65758;BME280;52495;52.208;5.158;2022-09-27T03:39:08;99678.56;;;10.09;88.10
65758;BME280;52495;52.208;5.158;2022-09-27T03:41:35;99681.94;;;10.11;88.54
65758;BME280;52495;52.208;5.158;2022-09-27T03:44:02;99678.56;;;10.09;87.98
65758;BME280;52495;52.208;5.158;2022-09-27T03:46:29;99684.50;;;10.11;88.06
65758;BME280;52495;52.208;5.158;2022-09-27T03:48:56;99687.19;;;10.08;87.75
65758;BME280;52495;52.208;5.158;2022-09-27T03:51:22;99682.03;;;10.08;87.83
65758;BME280;52495;52.208;5.158;2022-09-27T03:53:51;99694.81;;;10.11;88.44
65758;BME280;52495;52.208;5.158;2022-09-27T03:56:18;99684.69;;;10.07;88.56
65758;BME280;52495;52.208;5.158;2022-09-27T03:58:44;99690.53;;;10.12;88.23
65758;BME280;52495;52.208;5.158;2022-09-27T04:01:13;99689.00;;;10.06;88.60
65758;BME280;52495;52.208;5.158;2022-09-27T04:03:41;99687.34;;;10.03;88.75
65758;BME280;52495;52.208;5.158;2022-09-27T04:06:26;99686.34;;;10.08;87.62
65758;BME280;52495;52.208;5.158;2022-09-27T04:08:55;99687.97;;;10.10;88.42
65758;BME280;52495;52.208;5.158;2022-09-27T04:11:28;99685.28;;;10.15;87.44
65758;BME280;52495;52.208;5.158;2022-09-27T04:13:55;99681.81;;;10.16;87.90
65758;BME280;52495;52.208;5.158;2022-09-27T04:16:23;99676.63;;;10.16;87.68
65758;BME280;52495;52.208;5.158;2022-09-27T04:19:11;99682.72;;;10.13;87.67
65758;BME280;52495;52.208;5.158;2022-09-27T04:21:45;99677.66;;;10.10;87.17
65758;BME280;52495;52.208;5.158;2022-09-27T04:24:14;99689.75;;;10.08;86.71
65758;BME280;52495;52.208;5.158;2022-09-27T04:26:53;99692.50;;;10.03;87.16
65758;BME280;52495;52.208;5.158;2022-09-27T04:29:23;99683.97;;;10.01;87.44
65758;BME280;52495;52.208;5.158;2022-09-27T04:31:52;99692.66;;;9.99;87.71
65758;BME280;52495;52.208;5.158;2022-09-27T04:34:22;99697.91;;;9.96;87.72
65758;BME280;52495;52.208;5.158;2022-09-27T04:37:09;99690.34;;;9.91;87.32
65758;BME280;52495;52.208;5.158;2022-09-27T04:39:39;99693.91;;;9.87;86.69
65758;BME280;52495;52.208;5.158;2022-09-27T04:42:06;99688.03;;;9.83;87.51
65758;BME280;52495;52.208;5.158;2022-09-27T04:44:34;99692.44;;;9.80;87.44
65758;BME280;52495;52.208;5.158;2022-09-27T04:47:00;99694.16;;;9.79;87.91
65758;BME280;52495;52.208;5.158;2022-09-27T04:49:27;99696.75;;;9.79;88.51
65758;BME280;52495;52.208;5.158;2022-09-27T04:51:54;99692.38;;;9.81;87.47
65758;BME280;52495;52.208;5.158;2022-09-27T04:54:21;99690.66;;;9.82;88.14
65758;BME280;52495;52.208;5.158;2022-09-27T04:57:07;99691.50;;;9.82;88.22
65758;BME280;52495;52.208;5.158;2022-09-27T04:59:33;99694.97;;;9.81;88.48
65758;BME280;52495;52.208;5.158;2022-09-27T05:02:00;99685.50;;;9.82;87.65
65758;BME280;52495;52.208;5.158;2022-09-27T05:04:46;99691.59;;;9.79;87.46
65758;BME280;52495;52.208;5.158;2022-09-27T05:07:16;99699.28;;;9.81;87.79
65758;BME280;52495;52.208;5.158;2022-09-27T05:09:49;99692.44;;;9.80;88.32
65758;BME280;52495;52.208;5.158;2022-09-27T05:12:18;99698.41;;;9.82;88.05
65758;BME280;52495;52.208;5.158;2022-09-27T05:14:54;99698.41;;;9.82;87.67
65758;BME280;52495;52.208;5.158;2022-09-27T05:17:32;99700.13;;;9.81;88.69
65758;BME280;52495;52.208;5.158;2022-09-27T05:20:17;99700.22;;;9.78;87.90
65758;BME280;52495;52.208;5.158;2022-09-27T05:22:54;99700.44;;;9.72;89.02
65758;BME280;52495;52.208;5.158;2022-09-27T05:25:21;99693.63;;;9.69;88.60
65758;BME280;52495;52.208;5.158;2022-09-27T05:27:50;99697.16;;;9.67;88.09
65758;BME280;52495;52.208;5.158;2022-09-27T05:30:18;99692.16;;;9.62;88.07
65758;BME280;52495;52.208;5.158;2022-09-27T05:32:54;99698.22;;;9.60;88.53
65758;BME280;52495;52.208;5.158;2022-09-27T05:35:39;99702.56;;;9.57;88.65
65758;BME280;52495;52.208;5.158;2022-09-27T05:38:06;99694.00;;;9.57;88.47
65758;BME280;52495;52.208;5.158;2022-09-27T05:40:34;99690.56;;;9.56;88.53
65758;BME280;52495;52.208;5.158;2022-09-27T05:43:03;99695.63;;;9.60;88.00
65758;BME280;52495;52.208;5.158;2022-09-27T05:45:30;99700.78;;;9.60;88.70
65758;BME280;52495;52.208;5.158;2022-09-27T05:48:01;99697.28;;;9.62;89.30
65758;BME280;52495;52.208;5.158;2022-09-27T05:50:30;99701.59;;;9.62;89.63
65758;BME280;52495;52.208;5.158;2022-09-27T05:52:57;99713.44;;;9.67;89.72
65758;BME280;52495;52.208;5.158;2022-09-27T05:55:23;99722.03;;;9.68;89.96
65758;BME280;52495;52.208;5.158;2022-09-27T05:57:54;99729.75;;;9.68;88.86
65758;BME280;52495;52.208;5.158;2022-09-27T06:00:25;99727.44;;;9.59;89.82
65758;BME280;52495;52.208;5.158;2022-09-27T06:02:54;99728.41;;;9.56;90.27
65758;BME280;52495;52.208;5.158;2022-09-27T06:05:50;99729.16;;;9.60;90.26
65758;BME280;52495;52.208;5.158;2022-09-27T06:08:42;99735.00;;;9.65;90.03
65758;BME280;52495;52.208;5.158;2022-09-27T06:11:12;99727.28;;;9.65;91.21
65758;BME280;52495;52.208;5.158;2022-09-27T06:13:39;99721.97;;;9.69;90.93
65758;BME280;52495;52.208;5.158;2022-09-27T06:16:10;99730.69;;;9.65;90.84
65758;BME280;52495;52.208;5.158;2022-09-27T06:18:39;99732.38;;;9.66;91.02
65758;BME280;52495;52.208;5.158;2022-09-27T06:21:05;99720.25;;;9.70;91.07
65758;BME280;52495;52.208;5.158;2022-09-27T06:23:33;99720.91;;;9.77;91.51
65758;BME280;52495;52.208;5.158;2022-09-27T06:26:09;99723.25;;;9.83;91.21
65758;BME280;52495;52.208;5.158;2022-09-27T06:28:55;99738.59;;;9.87;91.67
65758;BME280;52495;52.208;5.158;2022-09-27T06:31:23;99739.34;;;9.91;92.09
65758;BME280;52495;52.208;5.158;2022-09-27T06:34:12;99743.78;;;9.86;91.42
65758;BME280;52495;52.208;5.158;2022-09-27T06:36:39;99742.81;;;9.90;91.39
65758;BME280;52495;52.208;5.158;2022-09-27T06:39:10;99736.69;;;9.93;91.45
65758;BME280;52495;52.208;5.158;2022-09-27T06:41:55;99732.34;;;9.95;91.67
65758;BME280;52495;52.208;5.158;2022-09-27T06:44:47;99740.72;;;10.01;91.44
65758;BME280;52495;52.208;5.158;2022-09-27T06:47:25;99736.41;;;10.02;90.57
65758;BME280;52495;52.208;5.158;2022-09-27T06:50:15;99741.47;;;10.05;91.55
65758;BME280;52495;52.208;5.158;2022-09-27T06:52:55;99734.53;;;10.07;91.94
65758;BME280;52495;52.208;5.158;2022-09-27T06:55:25;99748.84;;;10.16;92.55
65758;BME280;52495;52.208;5.158;2022-09-27T06:57:53;99747.75;;;10.23;92.22
65758;BME280;52495;52.208;5.158;2022-09-27T07:00:37;99741.53;;;10.29;92.02
65758;BME280;52495;52.208;5.158;2022-09-27T07:03:24;99738.78;;;10.33;92.75
65758;BME280;52495;52.208;5.158;2022-09-27T07:06:25;99755.78;;;10.41;92.31
65758;BME280;52495;52.208;5.158;2022-09-27T07:08:57;99758.38;;;10.41;92.52
65758;BME280;52495;52.208;5.158;2022-09-27T07:11:25;99765.22;;;10.42;92.64
65758;BME280;52495;52.208;5.158;2022-09-27T07:13:52;99759.97;;;10.45;92.07
65758;BME280;52495;52.208;5.158;2022-09-27T07:16:21;99752.13;;;10.48;92.47
65758;BME280;52495;52.208;5.158;2022-09-27T07:18:49;99758.00;;;10.52;92.58
65758;BME280;52495;52.208;5.158;2022-09-27T07:21:16;99757.94;;;10.53;92.88
65758;BME280;52495;52.208;5.158;2022-09-27T07:23:49;99752.75;;;10.55;93.11
65758;BME280;52495;52.208;5.158;2022-09-27T07:26:22;99755.16;;;10.59;93.11
65758;BME280;52495;52.208;5.158;2022-09-27T07:28:53;99757.66;;;10.61;92.72
65758;BME280;52495;52.208;5.158;2022-09-27T07:31:41;99759.34;;;10.62;93.11
65758;BME280;52495;52.208;5.158;2022-09-27T07:34:17;99755.00;;;10.64;92.67
65758;BME280;52495;52.208;5.158;2022-09-27T07:36:45;99748.09;;;10.65;92.42
65758;BME280;52495;52.208;5.158;2022-09-27T07:39:15;99757.63;;;10.62;92.84
65758;BME280;52495;52.208;5.158;2022-09-27T07:41:42;99764.41;;;10.65;92.91
65758;BME280;52495;52.208;5.158;2022-09-27T07:44:11;99765.31;;;10.64;93.18
65758;BME280;52495;52.208;5.158;2022-09-27T07:46:51;99767.88;;;10.66;92.78
65758;BME280;52495;52.208;5.158;2022-09-27T07:49:24;99764.53;;;10.62;93.55
65758;BME280;52495;52.208;5.158;2022-09-27T07:51:53;99773.06;;;10.64;93.37
65758;BME280;52495;52.208;5.158;2022-09-27T07:54:35;99774.75;;;10.65;93.20
65758;BME280;52495;52.208;5.158;2022-09-27T07:57:11;99773.75;;;10.69;93.91
65758;BME280;52495;52.208;5.158;2022-09-27T07:59:45;99767.59;;;10.73;94.09
65758;BME280;52495;52.208;5.158;2022-09-27T08:02:16;99764.03;;;10.76;93.66
65758;BME280;52495;52.208;5.158;2022-09-27T08:04:45;99771.63;;;10.81;93.89
65758;BME280;52495;52.208;5.158;2022-09-27T08:07:13;99765.47;;;10.85;93.98
65758;BME280;52495;52.208;5.158;2022-09-27T08:09:41;99767.03;;;10.89;93.48
65758;BME280;52495;52.208;5.158;2022-09-27T08:12:09;99779.78;;;10.93;93.78
65758;BME280;52495;52.208;5.158;2022-09-27T08:14:36;99792.53;;;10.98;94.01
65758;BME280;52495;52.208;5.158;2022-09-27T08:17:03;99799.44;;;10.98;93.97
65758;BME280;52495;52.208;5.158;2022-09-27T08:19:54;99793.38;;;10.99;93.75
65758;BME280;52495;52.208;5.158;2022-09-27T08:22:41;99806.28;;;10.99;93.58
65758;BME280;52495;52.208;5.158;2022-09-27T08:25:22;99804.53;;;10.99;93.74
65758;BME280;52495;52.208;5.158;2022-09-27T08:28:24;99807.13;;;10.99;93.67
65758;BME280;52495;52.208;5.158;2022-09-27T08:31:00;99806.41;;;10.96;93.71
65758;BME280;52495;52.208;5.158;2022-09-27T08:33:26;99799.34;;;11.01;93.63
65758;BME280;52495;52.208;5.158;2022-09-27T08:35:54;99789.94;;;10.98;92.81
65758;BME280;52495;52.208;5.158;2022-09-27T08:38:21;99799.63;;;10.93;92.27
65758;BME280;52495;52.208;5.158;2022-09-27T08:40:52;99795.28;;;10.68;88.62
65758;BME280;52495;52.208;5.158;2022-09-27T08:43:29;99798.94;;;10.62;88.44
65758;BME280;52495;52.208;5.158;2022-09-27T08:46:09;99802.50;;;10.58;88.68
65758;BME280;52495;52.208;5.158;2022-09-27T08:48:39;99801.69;;;10.58;88.69
65758;BME280;52495;52.208;5.158;2022-09-27T08:51:12;99813.00;;;10.54;88.16
65758;BME280;52495;52.208;5.158;2022-09-27T08:53:43;99810.34;;;10.55;88.45
65758;BME280;52495;52.208;5.158;2022-09-27T08:56:14;99801.97;;;10.48;89.03
65758;BME280;52495;52.208;5.158;2022-09-27T08:58:50;99816.38;;;10.56;89.43
65758;BME280;52495;52.208;5.158;2022-09-27T09:01:22;99808.47;;;10.60;89.38
65758;BME280;52495;52.208;5.158;2022-09-27T09:03:59;99810.09;;;10.63;88.80
65758;BME280;52495;52.208;5.158;2022-09-27T09:06:37;99807.75;;;10.57;89.18
65758;BME280;52495;52.208;5.158;2022-09-27T09:09:14;99818.78;;;10.60;89.35
65758;BME280;52495;52.208;5.158;2022-09-27T09:12:02;99811.22;;;10.56;89.38
65758;BME280;52495;52.208;5.158;2022-09-27T09:14:59;99811.94;;;10.59;89.31
65758;BME280;52495;52.208;5.158;2022-09-27T09:17:36;99818.69;;;10.63;89.55
65758;BME280;52495;52.208;5.158;2022-09-27T09:20:29;99816.94;;;10.64;88.96
65758;BME280;52495;52.208;5.158;2022-09-27T09:23:17;99825.00;;;10.55;89.24
65758;BME280;52495;52.208;5.158;2022-09-27T09:25:54;99828.78;;;10.44;89.41
65758;BME280;52495;52.208;5.158;2022-09-27T09:28:33;99831.31;;;10.46;89.16
65758;BME280;52495;52.208;5.158;2022-09-27T09:31:07;99832.91;;;10.50;88.59
65758;BME280;52495;52.208;5.158;2022-09-27T09:33:40;99828.47;;;10.54;89.07
65758;BME280;52495;52.208;5.158;2022-09-27T09:36:19;99834.72;;;10.46;88.70
65758;BME280;52495;52.208;5.158;2022-09-27T09:38:54;99847.69;;;10.45;88.55
65758;BME280;52495;52.208;5.158;2022-09-27T09:41:26;99846.91;;;10.43;89.30
65758;BME280;52495;52.208;5.158;2022-09-27T09:43:57;99847.59;;;10.48;88.78
65758;BME280;52495;52.208;5.158;2022-09-27T09:46:30;99847.84;;;10.40;89.37
65758;BME280;52495;52.208;5.158;2022-09-27T09:49:01;99841.22;;;10.31;88.90
65758;BME280;52495;52.208;5.158;2022-09-27T09:51:35;99844.53;;;10.35;89.59
65758;BME280;52495;52.208;5.158;2022-09-27T09:54:10;99846.03;;;10.42;89.24
65758;BME280;52495;52.208;5.158;2022-09-27T09:56:43;99860.13;;;10.32;89.80
65758;BME280;52495;52.208;5.158;2022-09-27T09:59:16;99838.41;;;10.38;90.00
65758;BME280;52495;52.208;5.158;2022-09-27T10:01:46;99839.09;;;10.44;90.63
65758;BME280;52495;52.208;5.158;2022-09-27T10:04:17;99841.41;;;10.52;90.46
65758;BME280;52495;52.208;5.158;2022-09-27T10:06:45;99828.50;;;10.52;90.72
65758;BME280;52495;52.208;5.158;2022-09-27T10:09:14;99832.53;;;10.61;90.42
65758;BME280;52495;52.208;5.158;2022-09-27T10:11:50;99830.09;;;10.56;90.44
65758;BME280;52495;52.208;5.158;2022-09-27T10:14:25;99830.91;;;10.58;88.92
65758;BME280;52495;52.208;5.158;2022-09-27T10:16:58;99819.53;;;10.37;88.88
65758;BME280;52495;52.208;5.158;2022-09-27T10:19:29;99820.84;;;10.51;87.61
65758;BME280;52495;52.208;5.158;2022-09-27T10:22:02;99813.81;;;10.54;88.43
65758;BME280;52495;52.208;5.158;2022-09-27T10:24:52;99811.25;;;10.54;85.93
65758;BME280;52495;52.208;5.158;2022-09-27T10:27:41;99815.06;;;10.69;86.97
65758;BME280;52495;52.208;5.158;2022-09-27T10:30:26;99812.22;;;10.77;86.95
65758;BME280;52495;52.208;5.158;2022-09-27T10:32:53;99817.94;;;10.85;86.38
65758;BME280;52495;52.208;5.158;2022-09-27T10:35:39;99829.75;;;10.92;86.60
65758;BME280;52495;52.208;5.158;2022-09-27T10:38:20;99830.59;;;10.93;86.92
65758;BME280;52495;52.208;5.158;2022-09-27T10:40:51;99834.09;;;10.92;86.51
65758;BME280;52495;52.208;5.158;2022-09-27T10:43:28;99840.44;;;10.82;87.11
65758;BME280;52495;52.208;5.158;2022-09-27T10:46:08;99822.28;;;10.85;87.26
65758;BME280;52495;52.208;5.158;2022-09-27T10:48:39;99827.38;;;10.86;87.39
65758;BME280;52495;52.208;5.158;2022-09-27T10:51:22;99826.63;;;10.83;86.95
65758;BME280;52495;52.208;5.158;2022-09-27T10:53:52;99835.34;;;10.80;87.49
65758;BME280;52495;52.208;5.158;2022-09-27T10:56:32;99832.78;;;10.78;87.06
65758;BME280;52495;52.208;5.158;2022-09-27T10:59:00;99838.03;;;10.77;87.94
65758;BME280;52495;52.208;5.158;2022-09-27T11:01:38;99838.03;;;10.77;87.82
65758;BME280;52495;52.208;5.158;2022-09-27T11:04:29;99832.06;;;10.75;88.08
65758;BME280;52495;52.208;5.158;2022-09-27T11:07:07;99832.00;;;10.76;88.34
65758;BME280;52495;52.208;5.158;2022-09-27T11:09:44;99835.34;;;10.80;88.16
65758;BME280;52495;52.208;5.158;2022-09-27T11:12:15;99843.97;;;10.79;88.34
65758;BME280;52495;52.208;5.158;2022-09-27T11:14:52;99836.44;;;10.73;87.76
65758;BME280;52495;52.208;5.158;2022-09-27T11:17:29;99838.91;;;10.76;88.51
65758;BME280;52495;52.208;5.158;2022-09-27T11:20:14;99832.94;;;10.75;88.49
65758;BME280;52495;52.208;5.158;2022-09-27T11:23:07;99843.81;;;10.84;89.19
65758;BME280;52495;52.208;5.158;2022-09-27T11:25:44;99829.84;;;10.89;90.25
65758;BME280;52495;52.208;5.158;2022-09-27T11:28:25;99828.84;;;10.93;90.17
65758;BME280;52495;52.208;5.158;2022-09-27T11:30:58;99823.47;;;11.00;89.63
65758;BME280;52495;52.208;5.158;2022-09-27T11:33:55;99838.13;;;10.99;89.44
65758;BME280;52495;52.208;5.158;2022-09-27T11:36:37;99835.50;;;11.01;89.16
65758;BME280;52495;52.208;5.158;2022-09-27T11:39:13;99821.63;;;11.03;88.90
65758;BME280;52495;52.208;5.158;2022-09-27T11:41:53;99825.09;;;11.02;88.17
65758;BME280;52495;52.208;5.158;2022-09-27T11:44:45;99824.13;;;11.05;87.44
65758;BME280;52495;52.208;5.158;2022-09-27T11:47:22;99814.38;;;11.13;87.89
65758;BME280;52495;52.208;5.158;2022-09-27T11:50:08;99806.75;;;11.10;87.14
65758;BME280;52495;52.208;5.158;2022-09-27T11:52:49;99817.97;;;11.09;87.27
65758;BME280;52495;52.208;5.158;2022-09-27T11:55:32;99830.97;;;11.07;86.57
65758;BME280;52495;52.208;5.158;2022-09-27T11:58:08;99836.25;;;11.03;86.26
65758;BME280;52495;52.208;5.158;2022-09-27T12:00:56;99833.84;;;10.98;86.36
65758;BME280;52495;52.208;5.158;2022-09-27T12:03:50;99834.22;;;10.87;86.10
65758;BME280;52495;52.208;5.158;2022-09-27T12:06:24;99830.09;;;10.83;86.38
65758;BME280;52495;52.208;5.158;2022-09-27T12:09:02;99833.59;;;10.81;86.88
65758;BME280;52495;52.208;5.158;2022-09-27T12:11:36;99839.03;;;10.73;86.80
65758;BME280;52495;52.208;5.158;2022-09-27T12:14:10;99843.34;;;10.72;87.29
65758;BME280;52495;52.208;5.158;2022-09-27T12:16:45;99839.13;;;10.70;87.63
65758;BME280;52495;52.208;5.158;2022-09-27T12:19:17;99846.03;;;10.69;87.56
65758;BME280;52495;52.208;5.158;2022-09-27T12:22:00;99838.28;;;10.69;86.77
65758;BME280;52495;52.208;5.158;2022-09-27T12:24:29;99838.38;;;10.66;87.17
65758;BME280;52495;52.208;5.158;2022-09-27T12:27:08;99839.34;;;10.63;87.38
65758;BME280;52495;52.208;5.158;2022-09-27T12:29:37;99841.16;;;10.60;87.04
65758;BME280;52495;52.208;5.158;2022-09-27T12:32:12;99831.06;;;10.54;87.03
65758;BME280;52495;52.208;5.158;2022-09-27T12:34:46;99830.44;;;10.47;87.39
65758;BME280;52495;52.208;5.158;2022-09-27T12:37:18;99842.63;;;10.42;87.66
65758;BME280;52495;52.208;5.158;2022-09-27T12:39:51;99832.44;;;10.37;87.71
65758;BME280;52495;52.208;5.158;2022-09-27T12:42:30;99833.34;;;10.35;88.04
65758;BME280;52495;52.208;5.158;2022-09-27T12:45:04;99830.78;;;10.35;87.99
65758;BME280;52495;52.208;5.158;2022-09-27T12:47:45;99833.56;;;10.28;87.38
65758;BME280;52495;52.208;5.158;2022-09-27T12:50:23;99829.25;;;10.29;88.09
65758;BME280;52495;52.208;5.158;2022-09-27T12:52:57;99836.06;;;10.31;88.88
65758;BME280;52495;52.208;5.158;2022-09-27T12:59:02;99815.25;;;10.36;89.08
65758;BME280;52495;52.208;5.158;2022-09-27T13:04:39;99824.63;;;10.40;88.31
65758;BME280;52495;52.208;5.158;2022-09-27T13:07:23;99823.50;;;10.47;88.65
65758;BME280;52495;52.208;5.158;2022-09-27T13:10:15;99829.84;;;10.64;88.32
65758;BME280;52495;52.208;5.158;2022-09-27T13:12:55;99812.94;;;10.55;88.56
65758;BME280;52495;52.208;5.158;2022-09-27T13:15:27;99805.69;;;10.67;88.18
65758;BME280;52495;52.208;5.158;2022-09-27T13:17:55;99808.94;;;10.72;89.66
65758;BME280;52495;52.208;5.158;2022-09-27T13:20:45;99808.72;;;10.78;88.81
65758;BME280;52495;52.208;5.158;2022-09-27T13:23:50;99807.38;;;10.93;88.26
65758;BME280;52495;52.208;5.158;2022-09-27T13:26:24;99805.41;;;11.00;87.58
65758;BME280;52495;52.208;5.158;2022-09-27T13:29:23;99788.28;;;11.21;87.76
65758;BME280;52495;52.208;5.158;2022-09-27T13:32:17;99788.78;;;11.31;87.20
65758;BME280;52495;52.208;5.158;2022-09-27T13:35:16;99787.19;;;11.50;86.32
65758;BME280;52495;52.208;5.158;2022-09-27T13:37:51;99785.81;;;11.64;85.22
65758;BME280;52495;52.208;5.158;2022-09-27T13:40:40;99785.88;;;11.84;84.34
65758;BME280;52495;52.208;5.158;2022-09-27T13:43:48;99785.56;;;11.92;82.28
65758;BME280;52495;52.208;5.158;2022-09-27T13:46:44;99781.38;;;12.12;82.38
65758;BME280;52495;52.208;5.158;2022-09-27T13:49:17;99773.75;;;12.29;82.84
65758;BME280;52495;52.208;5.158;2022-09-27T13:52:16;99780.22;;;12.40;81.20
65758;BME280;52495;52.208;5.158;2022-09-27T13:54:53;99775.41;;;12.51;80.67
65758;BME280;52495;52.208;5.158;2022-09-27T13:57:41;99772.44;;;12.60;80.89